Time;durP1;ratioP1;P1;durP2;ratioP2;P2;SDS_P1;SDS_P2;PMS_P1;PMS_P2;Temp;Humidity;BMP_temperature;BMP_pressure;BME280_temperature;BME280_humidity;BME280_pressure;Samples;Min_cycle;Max_cycle;Signal;HPM_P1;HPM_P2
2022/12/27 00:00:31;;;;;;;151.00;62.80;;;;;;;3.09;89.02;95569.53;4990932;28;20254;-78
2022/12/27 00:02:57;;;;;;;158.47;71.33;;;;;;;2.94;89.68;95566.63;4985153;28;20438;-78
2022/12/27 00:05:22;;;;;;;154.98;72.30;;;;;;;3.05;90.34;95595.00;4987719;28;20796;-78
2022/12/27 00:07:48;;;;;;;144.73;62.83;;;;;;;3.09;90.18;95587.72;4990374;28;20195;-78
2022/12/27 00:10:13;;;;;;;126.10;59.00;;;;;;;2.81;90.20;95579.94;4992439;28;20524;-79
2022/12/27 00:12:38;;;;;;;107.00;54.90;;;;;;;3.04;89.77;95596.78;4989494;28;20184;-78
2022/12/27 00:15:04;;;;;;;105.30;51.63;;;;;;;3.13;89.75;95596.84;4990944;28;20216;-78
2022/12/27 00:17:30;;;;;;;134.03;52.20;;;;;;;3.19;89.14;95585.88;4995067;28;21041;-79
2022/12/27 00:19:55;;;;;;;122.40;59.37;;;;;;;2.98;89.19;95545.34;4990049;28;20276;-79
2022/12/27 00:22:21;;;;;;;110.67;50.77;;;;;;;3.23;89.23;95585.44;4989330;28;20197;-78
2022/12/27 00:24:47;;;;;;;125.60;58.10;;;;;;;3.22;88.23;95578.59;4988285;28;20232;-78
2022/12/27 00:27:12;;;;;;;102.87;50.23;;;;;;;2.93;88.45;95531.16;4993728;28;20185;-79
2022/12/27 00:29:38;;;;;;;124.73;53.87;;;;;;;3.02;88.77;95569.28;4982965;28;20193;-79
2022/12/27 00:32:03;;;;;;;116.37;53.07;;;;;;;3.11;88.31;95588.41;4987947;28;20188;-78
2022/12/27 00:34:29;;;;;;;123.23;51.90;;;;;;;2.98;88.03;95560.97;4993182;28;20169;-78
2022/12/27 00:36:54;;;;;;;111.63;50.50;;;;;;;2.82;87.84;95547.78;4990718;28;20177;-77
2022/12/27 00:39:20;;;;;;;131.37;59.03;;;;;;;3.03;88.79;95586.50;4988268;28;20180;-78
2022/12/27 00:41:45;;;;;;;148.70;69.40;;;;;;;3.14;89.71;95603.69;4988427;28;20264;-78
2022/12/27 00:44:10;;;;;;;154.87;69.07;;;;;;;2.96;89.97;95575.88;4988953;28;20193;-78
2022/12/27 00:46:36;;;;;;;156.30;71.27;;;;;;;3.16;90.76;95602.59;5007414;28;20651;-79
2022/12/27 00:49:02;;;;;;;261.87;114.03;;;;;;;3.20;91.31;95611.72;4994147;28;20176;-79
2022/12/27 00:51:27;;;;;;;158.57;66.13;;;;;;;3.27;91.85;95611.97;4993500;28;20634;-80
2022/12/27 00:53:53;;;;;;;144.93;64.13;;;;;;;3.30;91.77;95607.28;5000640;28;20207;-79
2022/12/27 00:56:29;;;;;;;162.70;77.15;;;;;;;3.09;91.26;95587.72;4995564;28;20414;-80
2022/12/27 00:58:57;;;;;;;158.97;74.53;;;;;;;3.23;91.13;95621.03;4995063;28;20169;-79
2022/12/27 01:01:24;;;;;;;137.13;61.90;;;;;;;3.17;90.87;95604.22;5000549;28;20180;-80
2022/12/27 01:03:50;;;;;;;137.47;60.77;;;;;;;3.10;91.26;95599.78;5000410;28;20692;-79
2022/12/27 01:06:18;;;;;;;133.63;61.13;;;;;;;2.98;90.60;95576.56;5011953;28;20241;-79
2022/12/27 01:08:45;;;;;;;147.73;65.07;;;;;;;3.29;90.40;95616.03;5003601;28;20255;-79
2022/12/27 01:11:12;;;;;;;167.43;79.80;;;;;;;3.14;90.22;95593.28;4992972;28;20982;-79
2022/12/27 01:13:38;;;;;;;139.23;66.57;;;;;;;2.97;89.67;95576.69;4994937;28;20554;-79
2022/12/27 01:16:11;;;;;;;178.45;84.25;;;;;;;2.97;89.89;95606.13;5000043;28;20409;-78
2022/12/27 01:18:37;;;;;;;132.93;57.90;;;;;;;2.90;90.62;95605.06;5002408;28;20271;-78
2022/12/27 01:21:11;;;;;;;131.30;59.37;;;;;;;2.88;91.11;95595.78;5004362;28;20255;-78
2022/12/27 01:23:37;;;;;;;123.77;58.20;;;;;;;2.88;90.65;95588.78;4990456;28;20263;-78
2022/12/27 01:26:10;;;;;;;131.80;59.17;;;;;;;2.89;90.08;95585.22;5004865;28;20635;-78
2022/12/27 01:28:35;;;;;;;185.30;82.43;;;;;;;3.02;89.67;95600.50;5003152;28;20229;-78
2022/12/27 01:31:12;;;;;;;121.00;57.77;;;;;;;3.00;90.53;95589.41;5003183;28;20682;-79
2022/12/27 01:33:38;;;;;;;119.47;53.03;;;;;;;2.89;90.45;95585.22;5010325;28;20165;-78
2022/12/27 01:36:18;;;;;;;135.70;65.27;;;;;;;2.93;90.13;95580.56;5002695;28;20517;-79
2022/12/27 01:38:43;;;;;;;121.23;57.47;;;;;;;2.84;90.23;95590.06;5006878;28;20188;-79
2022/12/27 01:43:58;;;;;;;113.87;54.30;;;;;;;2.80;90.18;95588.69;5006994;28;20698;-78
2022/12/27 01:46:23;;;;;;;128.75;60.85;;;;;;;2.72;89.92;95574.78;5009332;28;20418;-79
2022/12/27 01:48:49;;;;;;;124.47;55.13;;;;;;;2.80;90.38;95585.28;5005105;28;20184;-78
2022/12/27 01:51:15;;;;;;;115.00;51.17;;;;;;;2.75;89.78;95571.91;5006343;28;20249;-79
2022/12/27 01:53:45;;;;;;;127.43;55.80;;;;;;;2.83;89.96;95585.00;4998250;28;20177;-78
2022/12/27 01:56:18;;;;;;;135.07;58.33;;;;;;;2.87;89.73;95586.34;5003929;28;20220;-79
2022/12/27 01:58:43;;;;;;;115.33;52.47;;;;;;;2.87;89.65;95583.72;5001097;28;21576;-78
2022/12/27 02:01:16;;;;;;;162.67;62.87;;;;;;;2.87;89.31;95581.13;5009368;28;20219;-78
2022/12/27 02:03:52;;;;;;;116.40;53.43;;;;;;;2.73;89.00;95566.03;5004707;28;20548;-79
2022/12/27 02:06:19;;;;;;;126.03;55.97;;;;;;;2.58;89.29;95544.94;4992034;28;20176;-79
2022/12/27 02:08:54;;;;;;;93.53;49.47;;;;;;;2.83;89.52;95583.22;4999335;28;20169;-79
2022/12/27 02:11:49;;;;;;;125.40;62.03;;;;;;;2.87;90.14;95568.97;4996923;28;20411;-79
2022/12/27 02:14:10;;;;;;;120.57;55.60;;;;;;;2.81;90.51;95576.53;5003212;28;20180;-79
2022/12/27 02:16:36;;;;;;;113.50;50.60;;;;;;;2.91;89.81;95585.09;5009290;28;20172;-79
2022/12/27 02:19:04;;;;;;;105.00;51.87;;;;;;;2.68;89.76;95548.28;5008983;28;20239;-79
2022/12/27 02:21:50;;;;;;;96.17;46.93;;;;;;;2.86;90.31;95582.09;4998861;28;20175;-80
2022/12/27 02:24:32;;;;;;;94.33;43.70;;;;;;;2.89;90.66;95584.41;5002321;28;20679;-79
2022/12/27 02:27:15;;;;;;;93.93;45.57;;;;;;;2.96;90.53;95583.69;5008981;28;20185;-79
2022/12/27 02:29:55;;;;;;;111.45;56.05;;;;;;;2.97;90.16;95585.31;4988721;28;20850;-79
2022/12/27 02:32:34;;;;;;;117.27;51.70;;;;;;;2.79;89.66;95552.44;5002895;28;20636;-78
2022/12/27 02:35:05;;;;;;;115.17;53.17;;;;;;;3.04;89.63;95590.75;5008810;28;20202;-79
2022/12/27 02:37:36;;;;;;;113.83;50.63;;;;;;;3.06;89.05;95583.63;5005566;28;20243;-79
2022/12/27 02:54:14;;;;;;;93.93;40.33;;;;;;;2.84;87.79;95584.03;5005083;28;20223;-78
2022/12/27 02:57:08;;;;;;;82.03;39.33;;;;;;;2.62;87.73;95559.25;5005595;28;20501;-78
2022/12/27 02:59:37;;;;;;;71.17;34.77;;;;;;;2.79;88.41;95581.03;4997031;28;20181;-78
2022/12/27 03:05:12;;;;;;;73.63;36.97;;;;;;;2.68;89.13;95589.06;5005546;28;20250;-78
2022/12/27 03:07:56;;;;;;;79.97;36.63;;;;;;;2.65;88.95;95577.97;5005511;28;20663;-79
2022/12/27 03:16:56;;;;;;;73.77;37.93;;;;;;;2.62;89.85;95599.06;4992502;28;20679;-79
2022/12/27 03:25:27;;;;;;;81.43;38.63;;;;;;;2.59;89.71;95595.94;5001578;28;20208;-79
2022/12/27 03:34:03;;;;;;;78.20;38.97;;;;;;;2.65;89.08;95598.78;5007655;28;20622;-79
2022/12/27 03:39:32;;;;;;;78.20;36.70;;;;;;;2.53;89.26;95594.72;4990894;28;20575;-77
2022/12/27 03:44:51;;;;;;;73.00;36.13;;;;;;;2.45;89.73;95591.19;5004231;28;20291;-78
2022/12/27 03:47:52;;;;;;;73.77;33.10;;;;;;;2.47;90.46;95587.50;4997651;28;20197;-78
2022/12/27 03:50:43;;;;;;;66.57;32.20;;;;;;;2.45;90.62;95586.81;4996575;28;20192;-78
2022/12/27 03:53:15;;;;;;;62.97;31.20;;;;;;;2.27;90.66;95552.97;4995307;28;20678;-78
2022/12/27 03:55:41;;;;;;;71.93;32.77;;;;;;;2.46;90.88;95591.06;5010270;28;20184;-78
2022/12/27 03:58:07;;;;;;;72.63;33.50;;;;;;;2.41;89.56;95572.50;5012749;28;20238;-78
2022/12/27 04:00:32;;;;;;;71.87;33.17;;;;;;;2.44;89.63;95589.56;5011811;28;20172;-78
2022/12/27 04:02:58;;;;;;;68.70;32.93;;;;;;;2.45;88.89;95593.78;5002847;28;20312;-78
2022/12/27 04:05:23;;;;;;;62.60;31.83;;;;;;;2.36;89.50;95572.09;5004832;28;20204;-78
2022/12/27 04:35:08;;;;;;;85.50;41.67;;;;;;;2.40;89.23;95619.38;5003567;28;20184;-78
2022/12/27 04:37:34;;;;;;;82.20;37.00;;;;;;;2.35;88.71;95609.41;5004443;28;20184;-78
2022/12/27 04:56:28;;;;;;;101.40;50.10;;;;;;;2.33;89.62;95639.91;5002637;28;20223;-80
2022/12/27 05:04:22;;;;;;;100.80;48.43;;;;;;;2.26;90.60;95637.03;5000713;28;20211;-80
2022/12/27 05:06:48;;;;;;;96.60;48.50;;;;;;;2.11;91.37;95614.25;5001669;28;20181;-79
2022/12/27 05:14:41;;;;;;;111.18;54.95;;;;;;;2.19;91.36;95612.59;5006214;28;20445;-80
2022/12/27 05:17:07;;;;;;;76.97;40.97;;;;;;;2.03;91.15;95577.81;5000394;28;20648;-79
2022/12/27 05:19:32;;;;;;;78.80;39.95;;;;;;;2.14;91.89;95595.81;5004779;28;20414;-80
2022/12/27 05:27:26;;;;;;;89.40;42.77;;;;;;;2.13;89.91;95591.56;5009856;28;20616;-80
2022/12/27 05:29:51;;;;;;;94.53;45.20;;;;;;;2.10;89.70;95586.66;5006555;28;20427;-79
2022/12/27 05:32:16;;;;;;;96.53;44.20;;;;;;;2.09;90.31;95565.06;5006001;28;20699;-80
2022/12/27 05:34:42;;;;;;;89.53;40.93;;;;;;;2.15;91.06;95587.06;5010358;28;20689;-79
2022/12/27 05:37:07;;;;;;;86.40;39.30;;;;;;;2.08;90.41;95581.59;5004332;28;20227;-79
2022/12/27 05:39:33;;;;;;;82.07;40.93;;;;;;;2.08;91.00;95579.00;5007157;28;20687;-79
2022/12/27 05:41:58;;;;;;;81.23;38.90;;;;;;;2.13;90.44;95588.97;5009101;28;20197;-79
2022/12/27 05:44:23;;;;;;;94.87;43.03;;;;;;;2.08;90.20;95576.41;4997313;28;20211;-79
2022/12/27 05:46:49;;;;;;;86.47;42.07;;;;;;;2.08;90.67;95567.78;5001464;28;20177;-79
2022/12/27 05:49:14;;;;;;;78.40;39.23;;;;;;;2.18;89.71;95594.56;5003636;28;20185;-79
2022/12/27 05:51:40;;;;;;;91.37;42.53;;;;;;;2.31;89.52;95615.88;5006851;28;20172;-80
2022/12/27 05:54:05;;;;;;;88.87;40.00;;;;;;;2.21;90.02;95615.88;5006897;28;20184;-80
2022/12/27 05:56:31;;;;;;;88.33;41.77;;;;;;;2.28;90.92;95618.72;5006896;28;20176;-79
2022/12/27 05:58:56;;;;;;;80.53;39.80;;;;;;;2.36;91.44;95618.84;5005095;28;20184;-80
2022/12/27 06:01:22;;;;;;;86.33;39.97;;;;;;;2.14;92.23;95588.03;5008586;28;20191;-80
2022/12/27 06:03:47;;;;;;;91.23;40.83;;;;;;;2.45;92.22;95623.19;5005909;28;20218;-80
2022/12/27 06:06:13;;;;;;;95.63;44.27;;;;;;;2.51;91.73;95630.41;5006876;28;20176;-80
2022/12/27 06:08:39;;;;;;;96.35;49.05;;;;;;;2.24;90.47;95589.66;5013448;28;20422;-80
2022/12/27 06:11:08;;;;;;;97.03;52.47;;;;;;;2.27;90.74;95611.91;5006736;28;20983;-80
2022/12/27 06:13:34;;;;;;;84.07;43.50;;;;;;;2.41;91.06;95647.00;5005578;28;20176;-80
2022/12/27 06:16:01;;;;;;;87.87;43.47;;;;;;;2.42;90.78;95638.25;5003573;28;20200;-80
2022/12/27 06:18:31;;;;;;;96.77;51.37;;;;;;;2.47;90.25;95642.06;5008243;28;20176;-80
2022/12/27 06:21:05;;;;;;;107.77;54.37;;;;;;;2.53;90.04;95638.88;5000662;28;20181;-80
2022/12/27 06:23:32;;;;;;;109.50;48.20;;;;;;;2.52;90.14;95646.81;5009622;28;20666;-80
2022/12/27 06:25:58;;;;;;;102.77;49.97;;;;;;;2.52;89.96;95636.41;5004974;28;20292;-79
2022/12/27 06:28:23;;;;;;;104.80;52.93;;;;;;;2.62;89.77;95645.00;5001981;28;20299;-79
2022/12/27 06:30:49;;;;;;;103.50;50.33;;;;;;;2.60;89.47;95632.16;5002669;28;20657;-79
2022/12/27 06:33:15;;;;;;;104.73;53.80;;;;;;;2.71;89.81;95640.72;5007170;28;20592;-79
2022/12/27 06:35:40;;;;;;;106.40;52.60;;;;;;;2.65;89.36;95627.34;5004585;28;20175;-79
2022/12/27 06:38:06;;;;;;;99.73;50.00;;;;;;;2.62;89.46;95616.41;5005823;28;20187;-79
2022/12/27 06:40:31;;;;;;;102.30;52.10;;;;;;;2.64;89.55;95612.72;5006048;28;20181;-79
2022/12/27 06:42:56;;;;;;;98.30;51.40;;;;;;;2.84;89.06;95628.25;5005360;28;20216;-79
2022/12/27 06:45:22;;;;;;;139.93;67.67;;;;;;;3.04;88.98;95642.75;5004783;28;20199;-80
2022/12/27 06:47:47;;;;;;;132.80;60.97;;;;;;;3.37;89.68;95642.16;5006042;28;20619;-79
2022/12/27 06:50:13;;;;;;;107.90;51.53;;;;;;;3.85;88.11;95617.53;4999895;28;20173;-79
2022/12/27 06:52:38;;;;;;;104.00;51.63;;;;;;;4.42;84.95;95636.16;5007005;28;20530;-79
2022/12/27 06:55:04;;;;;;;99.20;46.53;;;;;;;4.80;83.57;95632.31;5005975;28;20263;-79
2022/12/27 06:57:29;;;;;;;91.47;43.73;;;;;;;5.28;81.65;95642.09;5009568;28;20176;-79
2022/12/27 06:59:54;;;;;;;90.97;43.13;;;;;;;5.68;80.22;95639.59;5006079;28;20235;-79
2022/12/27 07:02:20;;;;;;;83.63;48.40;;;;;;;5.86;77.74;95644.69;5004206;28;20180;-79
2022/12/27 07:04:45;;;;;;;98.17;50.30;;;;;;;5.73;77.41;95651.34;5001078;28;20623;-79
2022/12/27 07:07:11;;;;;;;95.17;46.30;;;;;;;5.50;78.49;95643.31;5008669;28;20242;-77
2022/12/27 07:09:36;;;;;;;84.10;44.70;;;;;;;5.19;80.05;95617.00;5010104;28;20593;-77
2022/12/27 07:12:01;;;;;;;87.00;43.47;;;;;;;5.13;81.07;95634.06;5003959;28;20184;-79
2022/12/27 07:14:27;;;;;;;90.17;44.17;;;;;;;4.99;81.79;95613.00;4995713;28;20188;-78
2022/12/27 07:16:52;;;;;;;101.37;48.07;;;;;;;5.06;82.85;95627.03;5002202;28;20215;-79
2022/12/27 07:19:18;;;;;;;80.93;46.00;;;;;;;4.74;83.73;95562.53;4996603;28;20632;-78
2022/12/27 07:21:43;;;;;;;85.33;43.97;;;;;;;5.14;83.46;95627.06;5000421;28;20586;-78
2022/12/27 07:24:09;;;;;;;90.67;44.50;;;;;;;5.23;83.44;95626.94;5001694;28;20184;-77
2022/12/27 07:26:34;;;;;;;79.67;45.00;;;;;;;5.36;83.65;95629.09;5001248;28;20559;-77
2022/12/27 07:29:00;;;;;;;83.67;44.17;;;;;;;5.52;83.40;95631.75;5005031;28;20240;-78
2022/12/27 07:31:29;;;;;;;76.90;45.13;;;;;;;5.67;82.95;95595.38;5010410;28;20208;-78
2022/12/27 07:33:55;;;;;;;84.33;44.70;;;;;;;6.71;83.20;95629.44;5004981;28;20188;-78
2022/12/27 07:36:24;;;;;;;97.40;50.70;;;;;;;8.16;77.19;95642.75;5003151;28;20609;-78
2022/12/27 07:38:50;;;;;;;76.57;42.30;;;;;;;10.41;69.32;95632.28;5000417;28;20239;-79
2022/12/27 07:41:16;;;;;;;67.70;37.90;;;;;;;12.82;61.25;95638.81;5008588;28;20627;-78
2022/12/27 07:43:43;;;;;;;70.90;40.30;;;;;;;14.80;54.95;95640.56;5002279;28;20227;-79
2022/12/27 07:46:16;;;;;;;67.40;37.00;;;;;;;16.14;49.86;95606.78;5009682;28;20193;-79
2022/12/27 07:48:42;;;;;;;64.53;36.67;;;;;;;16.87;46.80;95616.28;4998278;28;20173;-78
2022/12/27 07:51:08;;;;;;;60.80;35.53;;;;;;;16.76;46.29;95625.88;4995232;28;20235;-78
2022/12/27 07:53:34;;;;;;;62.97;36.23;;;;;;;15.91;47.85;95633.28;5001423;28;20188;-78
2022/12/27 07:56:09;;;;;;;61.27;36.50;;;;;;;15.56;48.35;95613.69;4993585;28;20821;-80
2022/12/27 07:58:39;;;;;;;73.43;37.13;;;;;;;14.91;49.22;95632.72;5000382;28;20230;-78
2022/12/27 08:01:06;;;;;;;76.77;38.60;;;;;;;13.81;51.15;95622.69;5002035;28;20181;-78
2022/12/27 08:03:32;;;;;;;66.87;37.93;;;;;;;13.15;52.90;95628.22;4994455;28;20589;-79
2022/12/27 08:05:57;;;;;;;73.57;38.73;;;;;;;12.95;53.64;95611.59;4994699;28;20189;-79
2022/12/27 08:08:25;;;;;;;68.13;38.47;;;;;;;13.46;53.47;95625.69;4990156;28;20221;-79
2022/12/27 08:10:51;;;;;;;61.37;37.30;;;;;;;14.25;51.96;95637.72;4991688;28;20204;-79
2022/12/27 08:13:16;;;;;;;79.10;41.57;;;;;;;14.79;50.02;95633.66;4991262;28;20189;-79
2022/12/27 08:15:42;;;;;;;69.10;39.80;;;;;;;15.32;49.40;95648.00;4997070;28;20559;-80
2022/12/27 08:18:08;;;;;;;70.73;39.10;;;;;;;15.99;47.69;95653.38;4997034;28;20204;-78
2022/12/27 08:20:34;;;;;;;65.87;38.23;;;;;;;16.31;46.91;95627.38;4992900;28;20218;-77
2022/12/27 08:23:00;;;;;;;70.90;40.00;;;;;;;16.92;46.38;95640.34;4992960;28;20216;-77
2022/12/27 08:25:27;;;;;;;71.60;39.67;;;;;;;17.15;45.75;95660.81;4987192;28;20228;-77
2022/12/27 08:28:00;;;;;;;75.90;41.05;;;;;;;17.21;45.85;95651.94;4993927;28;20847;-76
2022/12/27 08:30:26;;;;;;;70.30;40.72;;;;;;;16.95;45.59;95659.31;4987757;28;20583;-75
2022/12/27 08:32:51;;;;;;;70.68;39.97;;;;;;;16.80;47.26;95650.97;4984256;28;20188;-76
2022/12/27 08:35:16;;;;;;;74.53;39.57;;;;;;;16.43;46.09;95652.16;4985566;28;20209;-77
2022/12/27 08:37:42;;;;;;;69.97;38.40;;;;;;;15.89;48.20;95622.06;4993910;28;20577;-78
2022/12/27 08:40:08;;;;;;;63.23;35.40;;;;;;;15.35;48.38;95620.22;4995481;28;20185;-81
2022/12/27 08:42:33;;;;;;;71.23;37.70;;;;;;;14.88;50.37;95634.97;4991429;28;20215;-75
2022/12/27 08:44:58;;;;;;;66.33;38.37;;;;;;;14.65;52.58;95633.75;4990205;28;20204;-75
2022/12/27 08:47:24;;;;;;;64.23;36.23;;;;;;;14.42;52.15;95633.53;4984296;28;20296;-76
2022/12/27 08:49:49;;;;;;;76.87;34.13;;;;;;;14.17;53.07;95643.25;4985394;28;20189;-75
2022/12/27 08:52:14;;;;;;;57.80;34.63;;;;;;;14.07;54.57;95640.25;4978464;28;20189;-77
2022/12/27 08:54:40;;;;;;;56.77;33.13;;;;;;;14.05;55.55;95629.88;4981343;28;20185;-73
2022/12/27 08:57:05;;;;;;;56.07;32.97;;;;;;;13.76;53.37;95601.31;4977377;28;20189;-78
2022/12/27 08:59:31;;;;;;;65.33;34.37;;;;;;;13.59;55.03;95620.34;4988661;28;20189;-74
2022/12/27 09:01:56;;;;;;;67.80;33.13;;;;;;;13.62;55.79;95608.53;4984884;28;20217;-74
2022/12/27 09:04:21;;;;;;;60.07;32.63;;;;;;;13.66;56.19;95620.34;4985622;28;20268;-74
2022/12/27 09:06:47;;;;;;;70.60;36.37;;;;;;;13.75;56.06;95626.19;4980739;28;20185;-72
2022/12/27 09:09:13;;;;;;;62.13;35.03;;;;;;;13.73;55.48;95622.94;4979207;28;20679;-72
2022/12/27 09:11:38;;;;;;;57.27;31.97;;;;;;;13.62;55.93;95613.81;4978858;28;20178;-71
2022/12/27 09:14:04;;;;;;;60.77;32.37;;;;;;;13.57;56.41;95609.19;4984319;28;20181;-73
2022/12/27 09:16:32;;;;;;;53.17;29.73;;;;;;;13.35;57.33;95584.03;4983651;28;20186;-74
2022/12/27 09:18:59;;;;;;;49.30;27.77;;;;;;;13.35;56.45;95596.44;4980347;28;20708;-73
2022/12/27 09:21:27;;;;;;;48.40;26.63;;;;;;;13.22;57.81;95586.72;4977346;28;20185;-72
2022/12/27 09:23:53;;;;;;;51.30;26.07;;;;;;;13.25;58.30;95586.28;4985342;28;20208;-75
2022/12/27 09:26:25;;;;;;;33.13;18.43;;;;;;;13.32;57.46;95581.00;4987725;28;20294;-74
2022/12/27 09:28:51;;;;;;;39.50;19.20;;;;;;;13.47;58.09;95576.25;4982435;28;20283;-74
2022/12/27 09:31:18;;;;;;;31.73;17.07;;;;;;;13.52;57.31;95566.66;4986209;28;20216;-74
2022/12/27 09:33:44;;;;;;;37.83;21.03;;;;;;;13.50;58.03;95563.41;4989170;28;20181;-75
2022/12/27 09:36:12;;;;;;;34.53;20.10;;;;;;;13.71;57.27;95577.34;4983648;28;20212;-75
2022/12/27 09:38:38;;;;;;;37.93;20.10;;;;;;;13.86;57.00;95562.78;4987210;28;20227;-76
2022/12/27 09:41:11;;;;;;;33.23;19.17;;;;;;;13.90;56.05;95568.47;4984923;28;20309;-75
2022/12/27 09:43:42;;;;;;;31.63;18.17;;;;;;;13.84;55.28;95567.47;4977987;28;20730;-73
2022/12/27 09:46:15;;;;;;;27.50;17.80;;;;;;;13.64;55.57;95568.63;4983303;28;20201;-73
2022/12/27 09:48:40;;;;;;;27.70;17.27;;;;;;;13.46;55.75;95542.88;4982970;28;20211;-74
2022/12/27 09:51:15;;;;;;;39.23;18.27;;;;;;;13.41;58.14;95553.28;4983906;28;20186;-75
2022/12/27 09:53:46;;;;;;;32.13;18.10;;;;;;;13.41;56.98;95561.22;4984357;28;20259;-74
2022/12/27 09:56:19;;;;;;;37.57;21.77;;;;;;;13.32;57.47;95558.00;4987312;28;20263;-75
2022/12/27 09:58:47;;;;;;;41.97;22.93;;;;;;;13.39;58.09;95574.66;4996970;28;20184;-74
2022/12/27 10:01:28;;;;;;;40.73;22.70;;;;;;;13.41;56.99;95567.31;4992506;28;20672;-75
2022/12/27 10:03:53;;;;;;;64.43;32.37;;;;;;;13.26;58.13;95548.25;4989801;28;20179;-75
2022/12/27 10:06:21;;;;;;;62.27;33.90;;;;;;;13.30;57.75;95546.03;4986519;28;20220;-75
2022/12/27 10:09:08;;;;;;;63.07;34.47;;;;;;;13.24;57.33;95534.44;4981219;28;20178;-75
2022/12/27 10:11:52;;;;;;;58.50;32.97;;;;;;;13.05;58.12;95519.44;4983615;28;20177;-74
2022/12/27 10:14:42;;;;;;;55.97;29.17;;;;;;;12.91;57.97;95521.31;4984599;28;20212;-75
2022/12/27 10:17:35;;;;;;;49.43;28.27;;;;;;;12.88;58.91;95521.75;4987124;28;22547;-75
2022/12/27 10:20:22;;;;;;;51.37;29.07;;;;;;;12.83;59.97;95526.84;4996145;28;20185;-75
2022/12/27 10:23:01;;;;;;;53.50;29.47;;;;;;;12.92;59.05;95515.00;4982922;28;20189;-75
2022/12/27 10:25:29;;;;;;;53.40;29.83;;;;;;;12.95;58.74;95517.25;4981067;28;20203;-75
2022/12/27 10:27:59;;;;;;;47.70;28.07;;;;;;;12.95;58.37;95516.44;4983582;28;20236;-76
2022/12/27 10:30:27;;;;;;;54.80;29.63;;;;;;;13.03;59.48;95517.00;4988471;28;20209;-75
2022/12/27 10:32:52;;;;;;;68.80;30.73;;;;;;;12.92;58.83;95499.16;4983300;28;20197;-74
2022/12/27 10:35:20;;;;;;;55.33;30.73;;;;;;;13.03;58.80;95517.00;4982256;28;20170;-75
2022/12/27 10:37:47;;;;;;;55.53;32.47;;;;;;;12.96;58.21;95524.16;4982577;28;20192;-74
2022/12/27 10:40:18;;;;;;;54.57;31.93;;;;;;;12.83;59.38;95505.69;4986534;28;20184;-75
2022/12/27 10:42:52;;;;;;;53.00;29.33;;;;;;;12.88;59.41;95511.19;4987845;28;20188;-74
2022/12/27 10:45:41;;;;;;;51.50;29.50;;;;;;;12.84;59.54;95512.59;4990142;28;20292;-74
2022/12/27 10:48:28;;;;;;;48.03;26.07;;;;;;;12.80;60.14;95517.47;4996046;28;20181;-75
2022/12/27 10:51:08;;;;;;;43.63;25.37;;;;;;;12.76;60.18;95508.38;4984400;28;20208;-75
2022/12/27 10:53:51;;;;;;;37.37;20.37;;;;;;;12.67;60.42;95514.88;4984024;28;20180;-75
2022/12/27 10:56:25;;;;;;;29.97;15.33;;;;;;;12.70;61.00;95518.97;4981353;28;20667;-76
2022/12/27 10:58:53;;;;;;;33.23;18.43;;;;;;;12.58;61.65;95499.47;4990615;28;20187;-76
2022/12/27 11:01:36;;;;;;;40.13;20.07;;;;;;;12.49;61.89;95498.88;4999231;28;20192;-76
2022/12/27 11:04:17;;;;;;;39.97;22.17;;;;;;;12.35;62.99;95499.94;4996536;28;20192;-76
2022/12/27 11:06:45;;;;;;;41.97;22.20;;;;;;;12.34;63.68;95493.03;4989494;28;20188;-76
2022/12/27 11:09:27;;;;;;;49.07;25.50;;;;;;;12.38;65.38;95500.31;4990033;28;20181;-76
2022/12/27 11:12:18;;;;;;;45.60;25.67;;;;;;;12.47;64.42;95493.81;4980469;28;20184;-75
2022/12/27 11:15:00;;;;;;;46.10;26.03;;;;;;;12.56;64.48;95496.22;4986396;28;20201;-77
2022/12/27 11:17:32;;;;;;;42.97;23.63;;;;;;;12.67;64.71;95498.22;4986619;28;20692;-76
2022/12/27 11:20:04;;;;;;;48.27;24.87;;;;;;;12.74;63.57;95491.91;4993272;28;20253;-76
2022/12/27 11:22:29;;;;;;;49.83;25.37;;;;;;;12.76;63.08;95466.09;4990874;28;20243;-78
2022/12/27 11:24:59;;;;;;;41.63;25.27;;;;;;;12.90;63.02;95482.69;4987263;28;20233;-76
2022/12/27 11:27:28;;;;;;;53.97;26.90;;;;;;;13.01;63.33;95484.69;4990216;28;20943;-76
2022/12/27 11:29:57;;;;;;;44.03;25.67;;;;;;;13.03;62.90;95481.84;4981377;28;20182;-77
2022/12/27 11:32:23;;;;;;;43.13;23.63;;;;;;;13.05;62.95;95482.44;4989192;28;20307;-77
2022/12/27 11:34:53;;;;;;;35.53;18.40;;;;;;;13.04;63.04;95483.47;4989923;28;20652;-76
2022/12/27 11:37:22;;;;;;;30.20;17.93;;;;;;;13.10;63.83;95488.72;4993917;28;20762;-76
2022/12/27 11:39:53;;;;;;;30.97;16.73;;;;;;;13.15;61.93;95491.56;4990587;28;20173;-76
2022/12/27 11:42:41;;;;;;;25.10;14.43;;;;;;;13.08;62.84;95464.31;4991027;28;20188;-76
2022/12/27 11:45:32;;;;;;;30.93;14.20;;;;;;;13.31;63.81;95479.72;4991122;28;20192;-76
2022/12/27 11:48:19;;;;;;;24.33;12.10;;;;;;;13.40;63.34;95490.84;4993344;28;20248;-75
2022/12/27 11:50:52;;;;;;;25.57;14.57;;;;;;;13.51;62.54;95490.97;4989569;28;20189;-76
2022/12/27 11:53:39;;;;;;;26.40;14.23;;;;;;;13.58;62.93;95488.25;4988705;28;20285;-76
2022/12/27 11:56:21;;;;;;;24.47;13.43;;;;;;;13.60;62.60;95497.63;4994618;28;20184;-75
2022/12/27 11:58:49;;;;;;;24.97;12.33;;;;;;;13.63;62.22;95491.09;4992021;28;20187;-76
2022/12/27 12:01:26;;;;;;;24.83;13.57;;;;;;;13.62;62.36;95484.19;4986244;28;20212;-75
2022/12/27 12:03:55;;;;;;;28.97;14.43;;;;;;;13.60;62.94;95486.22;4988926;28;20668;-76
2022/12/27 12:06:32;;;;;;;24.93;14.27;;;;;;;13.56;62.65;95487.69;4990346;28;20198;-76
2022/12/27 12:09:48;;;;;;;34.43;17.83;;;;;;;13.52;62.42;95489.13;4987167;28;20181;-75
2022/12/27 12:12:52;;;;;;;32.47;17.17;;;;;;;13.43;63.09;95493.84;4970860;28;20207;-75
2022/12/27 12:15:47;;;;;;;31.93;17.53;;;;;;;13.38;63.64;95484.94;4990722;28;20227;-77
2022/12/27 12:18:39;;;;;;;38.03;19.50;;;;;;;13.30;64.00;95490.50;4990164;28;20264;-75
2022/12/27 12:21:23;;;;;;;46.60;20.53;;;;;;;12.97;64.87;95483.50;4983304;28;20663;-77
2022/12/27 12:24:16;;;;;;;41.57;19.87;;;;;;;12.93;65.62;95487.56;4985109;28;20256;-76
2022/12/27 12:26:50;;;;;;;44.07;21.23;;;;;;;12.96;66.11;95484.53;4996517;28;20176;-75
2022/12/27 12:29:32;;;;;;;51.50;24.23;;;;;;;12.88;66.72;95471.53;5000473;28;20251;-74
2022/12/27 12:32:27;;;;;;;54.40;26.83;;;;;;;13.03;67.50;95492.41;4982945;28;20184;-74
2022/12/27 12:34:59;;;;;;;47.87;21.40;;;;;;;13.06;67.78;95486.72;4990742;28;20630;-75
2022/12/27 12:37:46;;;;;;;27.23;15.20;;;;;;;13.11;68.47;95494.81;5003662;28;20184;-76
2022/12/27 12:40:21;;;;;;;18.47;9.87;;;;;;;13.11;67.74;95498.28;5002837;28;20252;-75
2022/12/27 12:43:10;;;;;;;18.17;9.00;;;;;;;13.15;68.29;95499.50;4993547;28;20180;-75
2022/12/27 12:45:56;;;;;;;15.47;8.90;;;;;;;13.23;67.73;95501.09;5003172;28;20736;-76
2022/12/27 12:48:40;;;;;;;11.03;6.53;;;;;;;13.33;67.04;95495.34;5011403;28;20187;-75
2022/12/27 12:51:32;;;;;;;15.47;6.20;;;;;;;13.38;68.63;95500.81;4999412;28;20240;-74
2022/12/27 12:53:57;;;;;;;8.47;4.90;;;;;;;13.42;67.02;95500.16;4990334;28;20674;-76
2022/12/27 12:56:42;;;;;;;12.00;5.73;;;;;;;13.42;67.50;95507.28;5008547;28;20161;-75
2022/12/27 12:59:33;;;;;;;11.10;5.43;;;;;;;13.37;67.03;95512.41;5004705;28;20184;-74
2022/12/27 13:02:30;;;;;;;14.50;6.73;;;;;;;13.34;68.05;95518.13;4990561;28;20210;-75
2022/12/27 13:05:16;;;;;;;19.10;8.70;;;;;;;13.30;67.70;95525.69;4988956;28;20783;-75
2022/12/27 13:08:00;;;;;;;24.10;7.37;;;;;;;13.17;68.05;95509.84;4990917;28;20176;-75
2022/12/27 13:10:52;;;;;;;15.17;6.90;;;;;;;13.32;69.08;95523.59;4989831;28;20715;-75
2022/12/27 13:13:26;;;;;;;9.03;4.10;;;;;;;13.44;68.41;95531.69;4987777;28;20188;-73
2022/12/27 13:15:57;;;;;;;7.57;5.03;;;;;;;13.48;69.46;95524.97;5004544;28;20187;-76
2022/12/27 13:18:34;;;;;;;20.50;8.47;;;;;;;13.53;73.11;95531.25;5000305;28;20470;-77
2022/12/27 13:21:11;;;;;;;14.20;8.20;;;;;;;13.61;71.06;95538.13;4987079;28;20188;-75